LIBD/BRI METAR and TAF weather

Enter ICAO airport designator
Station Type Date Time Source
LIBD METAR 2018/12/17 17:50 UTC NOAA

LIBD 171750Z 29010KT 7000 FEW015 SCT025 BKN040 08/05 Q1012


Station Type Date Time Source
LIBD Decoded METAR 2018/12/17 17:50 UTC NOAA

Bari / Palese Macchie, Italy (LIBD) 41-08N 016-47E 49M
Dec 17, 2018 - 12:50 PM EST / 2018.12.17 1750 UTC
Wind: from the WNW (290 degrees) at 12 MPH (10 KT):0
Visibility: 4 mile(s):0
Sky conditions: mostly cloudy
Temperature: 46 F (8 C)
Dew Point: 41 F (5 C)
Relative Humidity: 81%
Pressure (altimeter): 29.88 in. Hg (1012 hPa)
ob: LIBD 171750Z 29010KT 7000 FEW015 SCT025 BKN040 08/05 Q1012
cycle: 18

Station Type Date Time Source
LIBD TAF 2018/12/17 18:21 UTC NOAA

TAF LIBD 171700Z 1718/1818 35016KT 9999 SCT030
TEMPO 1718/1721 TSRA


Example: see airport list